Time;durP1;ratioP1;P1;durP2;ratioP2;P2;SDS_P1;SDS_P2;PMS_P1;PMS_P2;Temp;Humidity;BMP_temperature;BMP_pressure;BME280_temperature;BME280_humidity;BME280_pressure;Samples;Min_cycle;Max_cycle;Signal;HPM_P1;HPM_P2
2023/04/03 00:01:07;;;;;;;;;24.25;23.00;;;;;8.95;65.86;102239.91;6275837;22;45491;-65
2023/04/03 00:03:33;;;;;;;;;29.25;25.75;;;;;8.95;65.99;102237.25;6277533;22;45722;-65
2023/04/03 00:05:59;;;;;;;;;30.25;26.00;;;;;8.96;65.91;102231.94;6277282;22;45777;-65
2023/04/03 00:08:24;;;;;;;;;28.50;23.75;;;;;8.93;66.08;102221.28;6277641;22;45348;-65
2023/04/03 00:10:50;;;;;;;;;30.00;27.75;;;;;9.02;65.96;102236.34;6277485;22;45328;-65
2023/04/03 00:13:16;;;;;;;;;26.50;26.50;;;;;9.10;66.00;102245.19;6277143;22;45625;-65
2023/04/03 00:15:41;;;;;;;;;24.00;22.00;;;;;8.97;65.62;102224.81;6275293;22;45417;-65
2023/04/03 00:18:07;;;;;;;;;19.25;19.25;;;;;8.98;66.09;102224.81;6249666;22;45322;-65
2023/04/03 00:20:33;;;;;;;;;27.50;26.50;;;;;9.04;66.08;102229.25;6249272;22;45411;-65
2023/04/03 00:22:59;;;;;;;;;32.00;28.75;;;;;9.04;65.61;102231.91;6277215;22;46576;-65
2023/04/03 00:25:24;;;;;;;;;27.50;27.25;;;;;9.14;65.71;102248.75;6223990;22;45296;-65
2023/04/03 00:27:50;;;;;;;;;29.00;24.50;;;;;9.13;65.92;102250.53;6277276;22;45223;-65
2023/04/03 00:30:18;;;;;;;;;28.50;26.75;;;;;9.11;66.13;102247.00;6277365;22;45264;-65
2023/04/03 00:32:43;;;;;;;;;30.00;28.00;;;;;9.05;65.77;102233.69;6277189;22;46564;-65
2023/04/03 00:35:09;;;;;;;;;27.75;24.75;;;;;8.87;65.73;102206.19;6277192;22;45268;-65
2023/04/03 00:37:35;;;;;;;;;27.25;24.75;;;;;8.98;65.88;102221.28;6277408;22;45351;-65
2023/04/03 00:40:00;;;;;;;;;22.50;22.00;;;;;9.00;66.10;102217.69;6277314;22;45262;-65
2023/04/03 00:42:26;;;;;;;;;24.75;24.75;;;;;9.18;65.19;102251.41;6276980;22;46303;-65
2023/04/03 00:44:57;;;;;;;;;26.25;23.50;;;;;9.16;65.15;102255.84;6277175;22;45369;-65
2023/04/03 00:47:24;;;;;;;;;28.25;24.25;;;;;9.19;65.48;102253.19;6276101;22;45281;-66
2023/04/03 00:49:51;;;;;;;;;29.75;25.50;;;;;9.12;65.55;102231.88;6277247;22;45336;-65
2023/04/03 00:52:21;;;;;;;;;30.75;25.25;;;;;9.16;65.85;102239.88;6249445;22;48224;-65
2023/04/03 00:54:48;;;;;;;;;25.50;23.00;;;;;9.16;65.65;102221.22;6249340;22;46385;-65
2023/04/03 00:57:15;;;;;;;;;24.25;22.25;;;;;9.23;65.33;102235.41;6249360;22;45417;-65
2023/04/03 00:59:49;;;;;;;;;27.50;24.75;;;;;9.14;65.09;102224.78;6249132;22;45496;-65
2023/04/03 01:02:14;;;;;;;;;23.75;22.00;;;;;9.11;64.95;102223.00;6248962;22;47375;-65
2023/04/03 01:04:42;;;;;;;;;35.50;29.50;;;;;9.08;64.94;102225.69;6276859;22;45307;-65
2023/04/03 01:07:15;;;;;;;;;29.00;26.50;;;;;8.94;64.82;102191.09;6248867;22;45336;-65
2023/04/03 01:09:42;;;;;;;;;29.25;27.50;;;;;9.11;65.26;102219.47;6249233;22;45911;-65
2023/04/03 01:12:21;;;;;;;;;30.25;30.25;;;;;9.25;65.13;102230.97;6248923;22;46078;-65
2023/04/03 01:14:50;;;;;;;;;29.00;28.75;;;;;9.18;65.51;102221.22;6276947;22;45197;-65
2023/04/03 01:17:38;;;;;;;;;29.25;27.75;;;;;9.18;64.63;102226.56;6277071;22;45374;-65
2023/04/03 01:20:22;;;;;;;;;28.25;24.00;;;;;9.14;64.84;102227.44;6277871;22;45311;-65
2023/04/03 01:23:14;;;;;;;;;29.75;25.75;;;;;8.98;65.48;102216.81;6250357;22;47552;-65
2023/04/03 01:25:49;;;;;;;;;26.50;26.25;;;;;9.11;65.23;102227.47;6278467;22;45354;-65
2023/04/03 01:28:18;;;;;;;;;20.25;20.00;;;;;9.08;65.23;102212.38;6250542;22;45401;-65
2023/04/03 01:31:03;;;;;;;;;24.50;21.25;;;;;9.13;65.45;102218.56;6250589;22;45382;-65
2023/04/03 01:33:29;;;;;;;;;21.75;21.75;;;;;9.02;65.01;102196.38;6244759;22;46378;-65
2023/04/03 01:35:55;;;;;;;;;27.00;24.75;;;;;9.13;65.28;102210.56;6278115;22;45232;-65
2023/04/03 01:38:20;;;;;;;;;22.75;22.75;;;;;9.16;65.40;102199.03;6250504;22;45497;-65
2023/04/03 01:40:46;;;;;;;;;29.75;26.50;;;;;9.25;65.17;102217.63;6278187;22;45363;-65
2023/04/03 01:43:11;;;;;;;;;24.50;23.25;;;;;9.30;65.11;102218.50;6277981;22;45293;-65
2023/04/03 01:45:36;;;;;;;;;28.50;23.25;;;;;9.22;65.29;102202.56;6277984;22;45275;-65
2023/04/03 01:48:02;;;;;;;;;26.75;24.25;;;;;9.17;65.54;102203.44;6277133;22;45377;-65
2023/04/03 01:50:27;;;;;;;;;21.50;20.75;;;;;9.28;65.20;102204.31;6278092;22;45275;-65
2023/04/03 01:52:53;;;;;;;;;27.00;22.00;;;;;9.41;65.42;102223.81;6278453;22;46005;-65
2023/04/03 01:55:18;;;;;;;;;27.75;25.25;;;;;9.36;65.71;102213.16;6276084;22;50929;-65
2023/04/03 01:57:43;;;;;;;;;27.00;27.00;;;;;9.38;65.08;102211.38;6250542;22;45336;-65
2023/04/03 02:00:09;;;;;;;;;34.25;31.50;;;;;9.41;65.38;102218.47;6278362;22;45461;-65
2023/04/03 02:02:35;;;;;;;;;27.75;24.75;;;;;9.31;65.19;102198.09;6277765;22;47407;-65
2023/04/03 02:05:00;;;;;;;;;24.00;23.25;;;;;9.28;65.59;102207.84;6278030;22;45263;-65
2023/04/03 02:07:26;;;;;;;;;36.25;27.75;;;;;9.29;65.69;102211.44;6278035;22;45338;-65
2023/04/03 02:09:51;;;;;;;;;23.00;23.00;;;;;9.16;65.31;102197.25;6251048;22;45660;-65
2023/04/03 02:12:17;;;;;;;;;32.25;27.25;;;;;9.10;65.45;102194.59;6277994;22;46145;-65
2023/04/03 02:14:42;;;;;;;;;14.75;10.00;;;;;9.01;65.59;102192.84;6277720;22;45306;-65
2023/04/03 02:17:08;;;;;;;;;28.50;27.75;;;;;9.17;65.37;102219.44;6249724;22;45362;-65
2023/04/03 02:19:35;;;;;;;;;30.00;25.25;;;;;9.15;65.69;102223.88;6277529;22;45366;-65
2023/04/03 02:22:04;;;;;;;;;26.25;22.50;;;;;9.17;65.63;102225.69;6277947;22;46249;-65
2023/04/03 02:24:30;;;;;;;;;24.75;24.25;;;;;9.08;65.31;102202.59;6250321;22;45440;-65
2023/04/03 02:26:55;;;;;;;;;25.75;23.50;;;;;9.20;65.44;102220.31;6277806;22;45301;-65
2023/04/03 02:29:20;;;;;;;;;28.50;26.25;;;;;9.07;65.70;102207.91;6277373;22;45319;-65
2023/04/03 02:31:46;;;;;;;;;26.00;22.00;;;;;9.13;65.19;102213.22;6277901;22;46529;-65
2023/04/03 02:34:11;;;;;;;;;29.25;25.00;;;;;8.80;65.11;102160.94;6277887;22;45391;-65
2023/04/03 02:36:37;;;;;;;;;22.50;20.50;;;;;9.15;65.33;102210.56;6277474;22;45307;-65
2023/04/03 02:39:03;;;;;;;;;24.00;22.50;;;;;9.17;65.05;102217.69;6277999;22;45303;-65
2023/04/03 02:41:34;;;;;;;;;28.00;23.00;;;;;9.21;65.13;102214.09;6249868;22;47876;-65
2023/04/03 02:44:01;;;;;;;;;22.50;21.25;;;;;9.26;64.54;102222.97;6249789;22;45280;-65
2023/04/03 02:46:27;;;;;;;;;26.50;23.50;;;;;9.31;65.00;102224.75;6250053;22;45334;-65
2023/04/03 02:48:52;;;;;;;;;23.75;20.75;;;;;9.27;64.13;102221.19;6275758;22;45419;-65
2023/04/03 02:51:17;;;;;;;;;21.50;21.50;;;;;9.18;64.67;102216.78;6275526;22;47565;-65
2023/04/03 02:53:43;;;;;;;;;26.25;23.00;;;;;9.12;64.21;102208.81;6278084;22;45287;-65
2023/04/03 02:56:08;;;;;;;;;24.00;22.00;;;;;9.24;64.36;102224.75;6278323;22;45350;-65
2023/04/03 02:58:33;;;;;;;;;22.50;21.00;;;;;9.06;64.04;102199.03;6275871;22;45543;-65
2023/04/03 03:00:59;;;;;;;;;20.75;19.00;;;;;9.11;64.43;102209.69;6278010;22;45420;-65
2023/04/03 03:03:24;;;;;;;;;28.25;22.75;;;;;9.19;64.88;102223.88;6277897;22;45232;-65
2023/04/03 03:05:49;;;;;;;;;22.75;22.00;;;;;9.13;64.63;102212.34;6277711;22;45269;-65
2023/04/03 03:08:15;;;;;;;;;23.25;21.50;;;;;8.84;64.64;102168.94;6277799;22;45402;-65
2023/04/03 03:10:40;;;;;;;;;22.00;19.00;;;;;9.14;64.12;102223.00;6277675;22;45368;-65
2023/04/03 03:13:05;;;;;;;;;19.50;16.75;;;;;8.93;64.62;102194.63;6277122;22;47994;-65
2023/04/03 03:15:31;;;;;;;;;21.25;16.50;;;;;8.92;64.33;102198.22;6277824;22;45121;-65
2023/04/03 03:17:56;;;;;;;;;28.50;24.25;;;;;8.95;64.15;102210.63;6277373;22;45489;-65
2023/04/03 03:20:21;;;;;;;;;16.75;16.25;;;;;8.99;64.83;102215.94;6277337;22;45319;-65
2023/04/03 03:22:47;;;;;;;;;23.50;19.25;;;;;9.11;64.59;102220.34;6275551;22;45808;-65
2023/04/03 03:25:12;;;;;;;;;23.50;20.75;;;;;9.08;64.27;102210.56;6277844;22;45293;-65
2023/04/03 03:27:38;;;;;;;;;18.00;17.50;;;;;9.04;63.69;102202.63;6248969;22;45283;-65
2023/04/03 03:30:04;;;;;;;;;18.75;16.50;;;;;8.97;64.23;102196.41;6250084;22;48044;-65
2023/04/03 03:32:30;;;;;;;;;10.00;10.00;;;;;9.13;64.30;102215.91;6250066;22;45306;-65
2023/04/03 03:34:55;;;;;;;;;20.00;16.75;;;;;8.71;63.78;102141.44;6277322;22;45393;-65
2023/04/03 03:37:21;;;;;;;;;20.00;18.75;;;;;8.92;63.73;102179.56;6277407;22;45379;-65
2023/04/03 03:39:46;;;;;;;;;17.50;15.50;;;;;9.21;63.62;102223.88;6277819;22;45494;-65
2023/04/03 03:42:11;;;;;;;;;17.50;16.25;;;;;9.06;63.36;102184.84;6277273;22;45325;-65
2023/04/03 03:44:37;;;;;;;;;21.00;16.25;;;;;9.06;63.35;102188.38;6277906;22;45322;-65
2023/04/03 03:47:03;;;;;;;;;19.50;17.50;;;;;9.02;63.02;102194.63;6277188;22;45323;-65
2023/04/03 03:49:28;;;;;;;;;22.25;17.00;;;;;9.04;63.08;102214.16;6276483;22;46151;-65
2023/04/03 03:51:54;;;;;;;;;18.50;17.00;;;;;8.88;63.42;102205.28;6249554;22;45307;-65
2023/04/03 03:54:19;;;;;;;;;19.00;18.00;;;;;8.79;63.08;102204.44;6277819;22;45437;-65
2023/04/03 03:56:45;;;;;;;;;20.25;18.50;;;;;8.59;63.32;102184.06;6277580;22;45235;-65
2023/04/03 03:59:12;;;;;;;;;17.75;17.75;;;;;8.61;63.47;102179.63;6277558;22;46191;-65
2023/04/03 04:01:37;;;;;;;;;16.50;16.50;;;;;8.78;63.42;102206.19;6277735;22;45231;-65
2023/04/03 04:04:03;;;;;;;;;18.25;16.25;;;;;8.71;64.00;102199.13;6277666;22;45833;-65
2023/04/03 04:06:28;;;;;;;;;16.00;16.00;;;;;8.75;63.90;102198.22;6277281;22;45421;-65
2023/04/03 04:08:53;;;;;;;;;19.75;17.50;;;;;8.93;63.47;102226.59;6277368;22;45459;-65
2023/04/03 04:11:19;;;;;;;;;13.25;11.00;;;;;8.67;63.72;102176.94;6277537;22;45516;-65
2023/04/03 04:13:45;;;;;;;;;13.25;12.75;;;;;8.94;63.48;102219.47;6277181;22;45394;-65
2023/04/03 04:16:10;;;;;;;;;19.00;16.75;;;;;8.83;62.80;102198.22;6277390;22;45392;-65
2023/04/03 04:18:36;;;;;;;;;18.50;16.00;;;;;8.62;63.18;102167.19;6277067;22;45480;-65
2023/04/03 04:21:01;;;;;;;;;12.50;10.00;;;;;8.82;63.36;102193.75;6277335;22;45302;-65
2023/04/03 04:23:26;;;;;;;;;21.00;18.25;;;;;8.94;63.38;102211.50;6277737;22;45414;-65
2023/04/03 04:25:52;;;;;;;;;21.00;18.75;;;;;8.88;62.96;102199.09;6249846;22;45322;-65
2023/04/03 04:28:17;;;;;;;;;22.50;19.25;;;;;8.93;62.58;102209.75;6249236;22;45770;-65
2023/04/03 04:30:42;;;;;;;;;14.75;13.25;;;;;8.87;62.67;102199.97;6277638;22;45382;-65
2023/04/03 04:33:08;;;;;;;;;18.75;17.50;;;;;8.63;62.42;102166.31;6249756;22;45376;-65
2023/04/03 04:35:33;;;;;;;;;16.00;15.00;;;;;8.80;62.37;102204.41;6277324;22;45318;-65
2023/04/03 04:37:59;;;;;;;;;20.00;18.75;;;;;8.88;61.89;102218.59;6277388;22;45354;-65
2023/04/03 04:40:25;;;;;;;;;18.00;16.75;;;;;8.91;62.53;102220.41;6277435;22;45196;-65
2023/04/03 04:42:50;;;;;;;;;19.75;16.25;;;;;8.86;62.41;102212.41;6277441;22;45313;-65
2023/04/03 04:45:16;;;;;;;;;20.50;20.00;;;;;8.95;62.40;102218.59;6249597;22;45514;-65
2023/04/03 04:47:41;;;;;;;;;19.75;19.25;;;;;8.93;62.34;102212.41;6248442;22;48159;-65
2023/04/03 04:50:08;;;;;;;;;21.50;16.50;;;;;8.96;61.79;102210.63;6277081;22;45280;-65
2023/04/03 04:52:33;;;;;;;;;21.50;20.50;;;;;9.07;61.86;102224.81;6249613;22;45273;-65
2023/04/03 04:54:58;;;;;;;;;17.75;15.50;;;;;8.99;61.48;102215.06;6278529;22;45390;-65
2023/04/03 04:57:24;;;;;;;;;19.50;13.75;;;;;8.98;61.27;102207.94;6278031;22;46510;-65
2023/04/03 04:59:49;;;;;;;;;20.00;18.00;;;;;8.99;60.62;102223.06;6250176;22;45345;-65
2023/04/03 05:02:15;;;;;;;;;14.50;13.50;;;;;8.90;60.92;102231.94;6276253;22;45354;-65
2023/04/03 05:04:40;;;;;;;;;18.25;16.75;;;;;8.64;60.23;102213.34;6250292;22;45339;-65
2023/04/03 05:07:05;;;;;;;;;20.75;18.25;;;;;8.63;60.42;102228.41;6278031;22;45426;-65
2023/04/03 05:09:31;;;;;;;;;16.00;15.25;;;;;8.53;60.73;102221.31;6276566;22;45285;-65
2023/04/03 05:11:56;;;;;;;;;22.25;18.25;;;;;8.45;60.41;102194.72;6278329;22;45426;-65
2023/04/03 05:14:22;;;;;;;;;16.75;15.75;;;;;8.52;60.91;102200.94;6278110;22;45500;-65
2023/04/03 05:16:47;;;;;;;;;19.75;13.75;;;;;8.63;60.52;102216.88;6277848;22;45666;-65
2023/04/03 05:19:13;;;;;;;;;20.75;18.50;;;;;8.73;60.36;102221.31;6278560;22;45271;-65
2023/04/03 05:21:38;;;;;;;;;22.75;20.00;;;;;8.63;60.46;102211.56;6250119;22;45470;-65
2023/04/03 05:24:04;;;;;;;;;19.75;19.75;;;;;8.78;60.03;102235.50;6250245;22;45533;-65
2023/04/03 05:26:32;;;;;;;;;22.00;18.75;;;;;8.49;59.93;102179.63;6277503;22;46976;-65
2023/04/03 05:28:57;;;;;;;;;17.00;15.50;;;;;8.44;59.49;102176.97;6276211;22;45319;-65
2023/04/03 05:31:23;;;;;;;;;17.50;16.50;;;;;8.72;59.30;102238.19;6276101;22;45311;-65
2023/04/03 05:33:48;;;;;;;;;21.00;19.75;;;;;8.68;59.35;102242.59;6278339;22;45222;-65
2023/04/03 05:36:14;;;;;;;;;23.25;21.75;;;;;8.47;59.38;102200.00;6277365;22;45851;-65
2023/04/03 05:38:39;;;;;;;;;21.75;17.75;;;;;8.51;59.21;102210.66;6278384;22;45354;-65
2023/04/03 05:41:05;;;;;;;;;23.00;20.75;;;;;8.53;59.12;102219.53;6250499;22;45355;-65
2023/04/03 05:43:31;;;;;;;;;19.50;12.50;;;;;8.22;59.42;102188.44;6278151;22;45597;-65
2023/04/03 05:45:56;;;;;;;;;13.25;13.25;;;;;8.40;59.59;102223.03;6250307;22;47514;-65
2023/04/03 05:48:21;;;;;;;;;19.25;17.25;;;;;8.35;59.25;102216.84;6277446;22;45378;-65
2023/04/03 05:50:47;;;;;;;;;21.75;18.25;;;;;8.47;59.24;102239.94;6278039;22;45300;-65
2023/04/03 05:53:21;;;;;;;;;21.25;19.75;;;;;8.16;59.15;102192.00;6278081;22;45324;-65
2023/04/03 05:55:46;;;;;;;;;20.75;20.75;;;;;8.33;59.35;102219.50;6275970;22;48390;-65
2023/04/03 05:58:11;;;;;;;;;19.25;17.50;;;;;8.37;59.30;102224.81;6277803;22;45332;-65
2023/04/03 06:00:37;;;;;;;;;18.75;18.75;;;;;8.20;59.17;102192.88;6250600;22;45310;-65
2023/04/03 06:03:02;;;;;;;;;23.50;20.25;;;;;8.46;59.39;102225.75;6278089;22;45258;-65
2023/04/03 06:05:27;;;;;;;;;21.00;19.25;;;;;8.63;59.44;102239.06;6277330;22;46097;-65
2023/04/03 06:07:53;;;;;;;;;19.50;19.25;;;;;8.55;58.72;102232.84;6278152;22;45596;-65
2023/04/03 06:10:19;;;;;;;;;20.25;18.50;;;;;8.45;58.67;102224.00;6278287;22;45329;-65
2023/04/03 06:12:45;;;;;;;;;19.25;18.00;;;;;8.41;59.01;102215.97;6277842;22;45436;-65
2023/04/03 06:15:11;;;;;;;;;20.75;18.75;;;;;8.51;59.58;102228.41;6277838;22;46103;-65
2023/04/03 06:17:37;;;;;;;;;18.75;17.50;;;;;8.45;58.38;102221.34;6275523;22;45561;-65
2023/04/03 06:20:03;;;;;;;;;17.50;16.75;;;;;8.50;58.72;102227.53;6276196;22;45291;-65
2023/04/03 06:22:29;;;;;;;;;24.50;20.25;;;;;8.40;58.81;102217.72;6277139;22;45366;-65
2023/04/03 06:24:56;;;;;;;;;20.00;18.50;;;;;8.38;58.44;102224.81;6277880;22;45900;-65
2023/04/03 06:27:21;;;;;;;;;19.25;17.50;;;;;8.34;58.55;102215.97;6249738;22;45408;-65
2023/04/03 06:29:46;;;;;;;;;21.25;18.25;;;;;8.27;58.00;102226.59;6278095;22;45421;-65
2023/04/03 06:32:12;;;;;;;;;20.25;17.25;;;;;8.05;58.00;102196.41;6276465;22;45457;-65
2023/04/03 06:34:37;;;;;;;;;22.50;19.00;;;;;8.27;58.84;102234.56;6277584;22;45370;-65
2023/04/03 06:37:03;;;;;;;;;18.75;16.50;;;;;8.40;58.89;102243.44;6276929;22;45256;-65
2023/04/03 06:39:29;;;;;;;;;19.25;18.00;;;;;8.38;58.54;102231.94;6278079;22;45296;-65
2023/04/03 06:41:55;;;;;;;;;20.50;18.50;;;;;8.21;58.71;102200.88;6277873;22;45252;-65
2023/04/03 06:44:20;;;;;;;;;25.75;21.50;;;;;8.57;59.00;102252.38;6250081;22;47267;-65
2023/04/03 06:46:46;;;;;;;;;17.25;15.25;;;;;8.45;58.17;102239.06;6277122;22;45399;-65
2023/04/03 06:49:12;;;;;;;;;23.75;20.25;;;;;8.38;57.81;102229.25;6277295;22;45253;-65
2023/04/03 06:51:37;;;;;;;;;20.75;16.75;;;;;8.49;58.50;102260.34;6277540;22;45252;-65
2023/04/03 06:54:05;;;;;;;;;18.50;16.25;;;;;8.48;58.68;102245.25;6249885;22;46051;-65
2023/04/03 06:56:31;;;;;;;;;19.00;19.00;;;;;8.53;57.89;102253.25;6277565;22;45373;-65
2023/04/03 06:58:59;;;;;;;;;20.00;18.25;;;;;8.48;58.52;102250.59;6277696;22;45282;-65
2023/04/03 07:01:27;;;;;;;;;21.25;19.75;;;;;8.34;58.41;102237.25;6277908;22;45248;-66
2023/04/03 07:03:53;;;;;;;;;19.75;18.75;;;;;8.16;57.97;102219.47;6277506;22;45276;-67
2023/04/03 07:06:20;;;;;;;;;21.25;18.00;;;;;8.16;57.74;102231.91;6277368;22;45670;-65
2023/04/03 07:08:48;;;;;;;;;21.50;17.25;;;;;8.30;58.41;102255.84;6250071;22;45315;-65
2023/04/03 07:11:13;;;;;;;;;18.00;16.00;;;;;8.29;57.88;102252.31;6275087;22;45439;-65
2023/04/03 07:13:38;;;;;;;;;20.00;19.00;;;;;8.28;58.10;102265.63;6277443;22;45375;-65
2023/04/03 07:16:06;;;;;;;;;20.75;18.75;;;;;8.20;58.08;102259.38;6277279;22;45165;-65
2023/04/03 07:18:32;;;;;;;;;17.25;15.50;;;;;8.06;58.04;102246.06;6277640;22;45201;-65
2023/04/03 07:20:57;;;;;;;;;19.00;18.00;;;;;8.05;58.43;102250.50;6275882;22;45294;-65
2023/04/03 07:23:24;;;;;;;;;15.75;14.50;;;;;7.59;57.96;102174.16;6277872;22;45309;-65
2023/04/03 07:25:50;;;;;;;;;17.25;14.50;;;;;7.98;58.16;102268.22;6250359;22;45319;-65
2023/04/03 07:28:19;;;;;;;;;18.50;18.50;;;;;7.90;58.31;102248.69;6249409;22;45493;-65
2023/04/03 07:30:45;;;;;;;;;16.50;16.25;;;;;7.97;58.37;102268.22;6277691;22;45274;-65
2023/04/03 07:33:11;;;;;;;;;19.75;17.00;;;;;7.85;58.68;102246.91;6277468;22;45295;-65
2023/04/03 07:35:37;;;;;;;;;19.00;18.50;;;;;7.86;58.73;102244.25;6249885;22;46002;-65
2023/04/03 07:38:02;;;;;;;;;17.00;15.25;;;;;7.90;58.61;102254.03;6275584;22;45449;-65
2023/04/03 07:40:27;;;;;;;;;20.75;18.00;;;;;7.91;58.77;102261.09;6277590;22;45282;-65
2023/04/03 07:42:53;;;;;;;;;20.50;15.50;;;;;7.93;59.41;102275.28;6277393;22;45259;-66
2023/04/03 07:45:19;;;;;;;;;14.00;14.00;;;;;7.65;58.43;102228.22;6277732;22;45256;-68
2023/04/03 07:47:44;;;;;;;;;16.50;12.00;;;;;7.82;58.99;102250.44;6277401;22;45412;-65
2023/04/03 07:50:12;;;;;;;;;14.50;14.50;;;;;7.84;58.63;102266.41;6277527;22;45317;-66
2023/04/03 07:52:37;;;;;;;;;18.00;17.00;;;;;7.81;58.93;102258.41;6277000;22;47195;-66
2023/04/03 07:55:03;;;;;;;;;19.25;17.25;;;;;7.66;58.92;102230.88;6277526;22;45425;-65
2023/04/03 07:57:28;;;;;;;;;18.50;16.00;;;;;7.81;59.35;102253.09;6277353;22;45418;-66
2023/04/03 07:59:54;;;;;;;;;18.00;16.75;;;;;7.93;58.84;102267.28;6274831;22;45789;-66
2023/04/03 08:02:19;;;;;;;;;15.50;15.00;;;;;7.98;59.47;102265.56;6277363;22;46339;-65
2023/04/03 08:04:44;;;;;;;;;14.25;14.00;;;;;7.89;58.71;102238.06;6249275;22;45718;-66
2023/04/03 08:07:10;;;;;;;;;14.50;14.00;;;;;7.88;59.18;102241.59;6277249;22;47872;-65
2023/04/03 08:09:35;;;;;;;;;16.00;14.25;;;;;8.06;59.26;102275.34;6277711;22;45740;-65
2023/04/03 08:12:00;;;;;;;;;17.00;14.50;;;;;8.07;59.14;102267.34;6277168;22;45353;-66
2023/04/03 08:14:26;;;;;;;;;19.25;18.25;;;;;8.16;58.90;102279.78;6277777;22;45287;-65
2023/04/03 08:16:51;;;;;;;;;11.75;11.75;;;;;7.89;58.63;102227.44;6277281;22;45344;-65
2023/04/03 08:19:17;;;;;;;;;8.50;8.00;;;;;8.16;58.70;102263.81;6277628;22;45419;-65
2023/04/03 08:21:44;;;;;;;;;9.00;9.00;;;;;8.13;58.40;102259.38;6277097;22;46087;-65
2023/04/03 08:24:09;;;;;;;;;13.75;10.50;;;;;8.14;58.21;102266.47;6249551;22;45498;-65
2023/04/03 08:26:35;;;;;;;;;11.00;9.00;;;;;7.95;57.82;102228.34;6249733;22;45401;-66
2023/04/03 08:29:01;;;;;;;;;10.00;7.00;;;;;7.89;57.28;102215.00;6249510;22;45855;-65
2023/04/03 08:31:27;;;;;;;;;7.75;6.00;;;;;8.05;57.41;102229.25;6277080;22;45344;-65
2023/04/03 08:33:52;;;;;;;;;8.00;8.00;;;;;8.20;57.38;102259.38;6277470;22;45609;-65
2023/04/03 08:36:21;;;;;;;;;8.75;8.25;;;;;7.91;57.25;102194.63;6277425;22;45448;-65
2023/04/03 08:38:47;;;;;;;;;11.75;9.50;;;;;8.28;57.18;102249.66;6248292;22;45285;-65
2023/04/03 08:41:20;;;;;;;;;6.50;6.00;;;;;8.24;57.07;102240.78;6249129;22;48183;-65
2023/04/03 08:44:03;;;;;;;;;10.25;8.25;;;;;8.38;57.40;102258.53;6249167;22;45254;-65
2023/04/03 08:46:47;;;;;;;;;4.50;4.50;;;;;8.38;56.85;102258.53;6277495;22;45297;-67
2023/04/03 08:49:24;;;;;;;;;6.00;6.00;;;;;8.33;56.89;102250.53;6243265;22;45506;-67
2023/04/03 08:51:51;;;;;;;;;8.00;8.00;;;;;8.32;56.82;102254.09;6246255;22;45244;-67
2023/04/03 08:54:28;;;;;;;;;9.25;7.50;;;;;8.41;56.40;102259.41;6246448;22;45243;-67
2023/04/03 08:56:54;;;;;;;;;9.50;9.50;;;;;8.21;56.69;102226.59;6246257;22;45309;-67
2023/04/03 08:59:27;;;;;;;;;8.00;6.75;;;;;8.09;55.42;102215.03;6243889;22;45517;-66
2023/04/03 09:01:54;;;;;;;;;6.75;6.75;;;;;8.38;56.22;102269.19;6246255;22;45301;-65
2023/04/03 09:04:19;;;;;;;;;7.25;7.25;;;;;8.25;55.98;102253.22;6245869;22;45706;-65
2023/04/03 09:06:55;;;;;;;;;9.00;7.00;;;;;8.25;55.83;102262.94;6246454;22;45246;-65
2023/04/03 09:09:40;;;;;;;;;7.25;7.25;;;;;8.21;56.33;102250.53;6246251;22;45307;-65
2023/04/03 09:12:17;;;;;;;;;7.75;7.75;;;;;8.24;56.24;102251.44;6243824;22;47311;-65
2023/04/03 09:15:12;;;;;;;;;8.25;7.50;;;;;8.44;56.25;102264.78;6245780;22;45259;-65
2023/04/03 09:17:44;;;;;;;;;8.50;7.50;;;;;8.50;56.39;102275.44;6245895;22;45476;-65
2023/04/03 09:20:16;;;;;;;;;5.75;5.25;;;;;8.51;56.42;102269.22;6243700;22;45374;-65
2023/04/03 09:22:44;;;;;;;;;7.00;7.00;;;;;8.53;56.26;102267.44;6245962;22;46152;-65
2023/04/03 09:25:32;;;;;;;;;8.50;7.50;;;;;8.53;55.81;102269.22;6244077;22;45316;-65
2023/04/03 09:27:59;;;;;;;;;8.00;7.00;;;;;8.48;56.12;102260.34;6245674;22;45676;-64
2023/04/03 09:30:25;;;;;;;;;5.00;5.00;;;;;8.38;56.47;102231.94;6246059;22;45503;-65
2023/04/03 09:32:53;;;;;;;;;7.75;7.75;;;;;8.55;56.20;102255.91;6243549;22;46903;-65
2023/04/03 09:35:23;;;;;;;;;4.75;4.25;;;;;8.67;55.78;102270.13;6243611;22;45229;-65
2023/04/03 09:38:11;;;;;;;;;7.50;7.50;;;;;8.64;55.72;102263.91;6243892;22;45378;-65
2023/04/03 09:40:47;;;;;;;;;6.75;6.00;;;;;8.66;55.75;102270.13;6245308;22;45278;-65
2023/04/03 09:43:15;;;;;;;;;7.00;4.00;;;;;8.69;56.47;102270.13;6247318;22;45323;-65
2023/04/03 09:45:41;;;;;;;;;7.00;7.00;;;;;8.52;56.26;102236.41;6247282;22;45730;-65
2023/04/03 09:48:12;;;;;;;;;7.00;6.00;;;;;8.68;55.80;102244.38;6257893;22;45416;-65
2023/04/03 09:50:55;;;;;;;;;6.50;6.50;;;;;8.82;55.89;102266.56;6277882;22;45343;-65
2023/04/03 09:53:42;;;;;;;;;7.50;6.50;;;;;8.85;55.97;102263.91;6250479;22;46014;-65
2023/04/03 09:56:17;;;;;;;;;8.50;7.50;;;;;8.98;56.30;102263.88;6278478;22;45607;-65
2023/04/03 09:58:45;;;;;;;;;9.00;7.75;;;;;9.04;55.80;102256.78;6250550;22;45240;-65
2023/04/03 10:01:31;;;;;;;;;6.00;6.00;;;;;9.08;55.29;102254.97;6278092;22;45542;-65
2023/04/03 10:04:13;;;;;;;;;6.50;6.50;;;;;9.17;55.79;102256.72;6277962;22;45521;-65
2023/04/03 10:06:46;;;;;;;;;7.00;5.50;;;;;9.13;56.01;102239.88;6277804;22;46000;-65
2023/04/03 10:09:42;;;;;;;;;8.25;8.25;;;;;9.27;55.21;102246.06;6278062;22;45261;-66
2023/04/03 10:12:10;;;;;;;;;8.00;7.00;;;;;9.24;55.57;102230.09;6275806;22;45224;-65
2023/04/03 10:15:00;;;;;;;;;7.75;7.75;;;;;9.40;55.35;102241.56;6278036;22;45870;-67
2023/04/03 10:17:32;;;;;;;;;9.25;8.00;;;;;9.45;54.96;102234.47;6277648;22;45607;-67
2023/04/03 10:19:57;;;;;;;;;9.00;9.00;;;;;9.45;53.82;102237.13;6250013;22;45393;-66
2023/04/03 10:22:29;;;;;;;;;5.75;5.75;;;;;9.48;54.15;102236.22;6277945;22;45308;-66
2023/04/03 10:25:00;;;;;;;;;6.75;6.75;;;;;9.50;54.62;102229.09;6250184;22;47942;-66
2023/04/03 10:27:44;;;;;;;;;8.75;7.75;;;;;9.61;53.54;102232.59;6277633;22;45642;-66
2023/04/03 10:30:15;;;;;;;;;7.25;5.25;;;;;9.63;53.31;102236.13;6278305;22;45402;-66
2023/04/03 10:32:58;;;;;;;;;8.50;7.75;;;;;9.53;53.33;102215.75;6278124;22;45307;-66
2023/04/03 10:36:04;;;;;;;;;7.00;7.00;;;;;9.56;52.62;102206.88;6249566;22;47132;-66
2023/04/03 10:39:09;;;;;;;;;7.25;6.75;;;;;9.59;52.97;102206.84;6277743;22;45685;-65
2023/04/03 10:42:03;;;;;;;;;7.00;7.00;;;;;9.67;53.25;102198.81;6278056;22;45297;-65
2023/04/03 10:44:46;;;;;;;;;6.00;5.00;;;;;9.80;51.98;102216.50;6275687;22;45532;-65
2023/04/03 10:47:22;;;;;;;;;10.50;9.25;;;;;9.75;52.45;102199.66;6277496;22;45552;-65
2023/04/03 10:50:15;;;;;;;;;5.75;5.00;;;;;9.82;51.63;102204.03;6277391;22;45725;-65
2023/04/03 10:53:09;;;;;;;;;8.00;7.25;;;;;9.87;52.25;102199.56;6250040;22;45335;-65
2023/04/03 10:56:01;;;;;;;;;10.00;7.50;;;;;9.84;51.85;102188.94;6249689;22;45401;-65
2023/04/03 10:58:34;;;;;;;;;6.75;5.25;;;;;9.91;51.65;102184.47;6249604;22;47051;-65
2023/04/03 11:01:06;;;;;;;;;9.25;8.00;;;;;9.90;51.54;102156.00;6277892;22;45348;-65
2023/04/03 11:03:47;;;;;;;;;7.25;5.00;;;;;10.15;51.21;102191.38;6278046;22;45331;-65
2023/04/03 11:06:15;;;;;;;;;5.00;5.00;;;;;10.09;51.98;102172.75;6275976;22;45354;-67
2023/04/03 11:08:56;;;;;;;;;9.00;9.00;;;;;10.12;51.13;102178.06;6275191;22;46075;-64
2023/04/03 11:11:27;;;;;;;;;4.75;4.75;;;;;10.09;50.00;102175.41;6247663;22;45411;-66
2023/04/03 11:14:18;;;;;;;;;9.00;9.00;;;;;10.25;50.86;102194.88;6274593;22;45177;-65
2023/04/03 11:16:47;;;;;;;;;2.25;2.25;;;;;10.06;50.10;102147.00;6242230;22;45911;-65
2023/04/03 11:19:53;;;;;;;;;4.00;4.00;;;;;10.25;49.56;102165.53;6276480;22;45461;-65
2023/04/03 11:22:27;;;;;;;;;9.25;7.25;;;;;10.36;50.39;102174.38;6216167;22;45461;-66
2023/04/03 11:25:04;;;;;;;;;6.75;6.75;;;;;10.42;49.79;102168.06;6276573;22;45282;-66
2023/04/03 11:27:37;;;;;;;;;8.75;5.50;;;;;10.50;49.87;102168.88;6248452;22;45599;-66
2023/04/03 11:30:09;;;;;;;;;6.00;6.00;;;;;10.49;48.96;102159.09;6275424;22;45259;-66